Yucaipa, CA

4:43 AM PST on March 06, 2015 (GMT -0800)
Panorama Dr. | Change Station
CLOSE
Current Station
Personal Weather Station
Location: Yucaipa, CA
Elevation: 3114 ft
Nearby Weather Stations
Active Advisory: Wind Advisory

Elev 3114 ft 34.04 °N, 117.02 °W | Updated 1 minute ago

Clear
Clear
48.7 °F
Feels Like 49 °F
N
0.0
Wind Variable Wind from SE
Gusts 0.0 mph

Today
High -- | Low -- °F
--% Chance of Precip.
Yesterday
High -- | Low -- °F
Precip. -- in
6:10 AM 5:48 PM
Waxing Gibbous, 99% visible
Pressure 30.14 in
Visibility 10.0 miles
Clouds Clear
Windchill 49 °F
Dew Point 7 °F
Humidity 18%
Rainfall in
Snow Depth Not available.
UV 0 out of 12
Pollen 9.20 out of 12
Air Quality Not available.
Flu Activity Not available.
METAR KRIV 061158Z AUTO 00000KT 10SM CLR 03/M05 A3015 RMK AO2 SLP207 T00261054 10117 20014 56009

More Conditions Fewer Conditions

Pressure 30.14 in
Visibility 10.0 miles
Clouds Clear
Windchill 49 °F
Dew Point 7 °F
Humidity 18%
Rainfall in
Snow Depth Not available.
UV 0 out of 12
Pollen 9.20 out of 12
Air Quality Not available.
Flu Activity Not available.
METAR KRIV 061158Z AUTO 00000KT 10SM CLR 03/M05 A3015 RMK AO2 SLP207 T00261054 10117 20014 56009

More Conditions Fewer Conditions

10-Day Weather Forecast

Almanac

Astronomy

Mar. 06, 2015 Rise Set
Actual Time
Civil Twilight
Nautical Twilight
Astronomical Twilight
Moon
Length of Visible Light
Length of Day
Tomorrow will be .
, % of the Moon is Illuminated

Today's Extremes

State Highs State Lows

Community

WunderPhotos

Upload Photos

1,803,246 photos uploaded!

WunderBlogs® & News

Nearby

Air Quality

  Air Quality AQ Index Pollutant
Not available.

Snow Depth

Station Depth Elevation

Earthquake Activity

City Distance Mag. Time & Date
Minimum magnitude displayed is 2.5.

Coastal Water Temperatures

Place Temperature

Nearby Weather Stations

Wind Advisory
Statement as of 3:05 AM PST on March 06, 2015

... Wind Advisory now in effect until noon PST Saturday...

* winds... areas of northeast to east winds 20 to 30 mph with gusts
to 50 mph.

* Location... strongest winds below passes and canyons and near
coastal mountain slopes.

* Timing... strongest winds this morning and again late tonight
through Saturday morning.

* Impacts... strong winds will make driving difficult for high
profile vehicles.

Precautionary/preparedness actions...

A Wind Advisory means that winds of 35 mph are expected. Winds
this strong can make driving difficult... especially for high
profile vehicles. Use extra caution.